Time;durP1;ratioP1;P1;durP2;ratioP2;P2;SDS_P1;SDS_P2;PMS_P1;PMS_P2;Temp;Humidity;BMP_temperature;BMP_pressure;BME280_temperature;BME280_humidity;BME280_pressure;Samples;Min_cycle;Max_cycle;Signal;HPM_P1;HPM_P2
2021/12/15 00:01:06;;;;;;;26.13;18.43;;;9.50;99.90;;;;;;5075581;28;21116;-83
2021/12/15 00:03:32;;;;;;;26.63;19.47;;;9.50;99.90;;;;;;5074896;28;20431;-85
2021/12/15 00:05:58;;;;;;;26.70;18.30;;;9.50;99.90;;;;;;5056170;28;21195;-85
2021/12/15 00:08:24;;;;;;;27.90;18.80;;;9.40;99.90;;;;;;5055747;28;20448;-83
2021/12/15 00:10:50;;;;;;;22.73;16.40;;;9.70;99.90;;;;;;5058592;28;20446;-82
2021/12/15 00:13:18;;;;;;;26.30;18.47;;;9.30;99.90;;;;;;5062090;28;20462;-84
2021/12/15 00:15:46;;;;;;;26.20;18.40;;;9.60;99.90;;;;;;5076155;28;20428;-85
2021/12/15 00:18:12;;;;;;;25.37;17.73;;;9.60;99.90;;;;;;5054347;28;20447;-82
2021/12/15 00:20:39;;;;;;;26.40;17.30;;;9.70;99.90;;;;;;5048923;28;20440;-81
2021/12/15 00:23:05;;;;;;;26.13;17.60;;;9.20;99.90;;;;;;5075946;28;20439;-83
2021/12/15 00:25:35;;;;;;;25.50;17.23;;;9.60;99.90;;;;;;5074602;28;20427;-81
2021/12/15 00:28:00;;;;;;;22.93;16.10;;;9.40;99.90;;;;;;5041530;28;20213;-83
2021/12/15 00:30:29;;;;;;;25.60;17.47;;;9.50;99.90;;;;;;5040901;28;21010;-81
2021/12/15 00:32:55;;;;;;;23.30;15.60;;;9.40;99.90;;;;;;5082895;28;20448;-81
2021/12/15 00:35:21;;;;;;;23.43;15.83;;;9.70;99.90;;;;;;5069261;28;20555;-82
2021/12/15 00:37:48;;;;;;;20.80;15.70;;;9.40;99.90;;;;;;5057586;28;20306;-81
2021/12/15 00:40:17;;;;;;;18.67;14.97;;;9.50;99.90;;;;;;5069931;28;20423;-83
2021/12/15 00:42:43;;;;;;;21.00;15.00;;;9.40;99.90;;;;;;5057587;28;20514;-80
2021/12/15 00:45:10;;;;;;;22.67;14.70;;;9.40;99.90;;;;;;5074180;28;20466;-80
2021/12/15 00:47:36;;;;;;;24.07;15.90;;;9.40;99.90;;;;;;5057705;28;20960;-84
2021/12/15 00:50:06;;;;;;;24.30;15.37;;;9.40;99.90;;;;;;5056349;28;20428;-82
2021/12/15 00:52:37;;;;;;;22.47;14.67;;;9.50;99.90;;;;;;5056244;28;20217;-84
2021/12/15 00:55:07;;;;;;;20.27;13.83;;;9.40;99.90;;;;;;5053999;28;20515;-80
2021/12/15 00:57:33;;;;;;;22.13;15.40;;;9.30;99.90;;;;;;5058794;28;20447;-84
2021/12/15 00:59:59;;;;;;;22.80;15.50;;;9.50;99.90;;;;;;5058582;28;20438;-82
2021/12/15 01:02:25;;;;;;;18.90;14.70;;;9.40;99.90;;;;;;5049074;28;20420;-84
2021/12/15 01:04:51;;;;;;;19.23;14.70;;;9.30;99.90;;;;;;5039282;28;20271;-84
2021/12/15 01:07:16;;;;;;;21.47;14.57;;;9.30;99.90;;;;;;5057992;28;20544;-83
2021/12/15 01:09:49;;;;;;;22.07;15.40;;;9.30;99.90;;;;;;5058584;28;20292;-83
2021/12/15 01:20:48;;;;;;;18.33;13.87;;;9.40;99.90;;;;;;5049470;28;20457;-84
2021/12/15 01:23:18;;;;;;;18.03;13.30;;;9.40;99.90;;;;;;5050275;28;20439;-83
2021/12/15 01:25:54;;;;;;;18.83;14.33;;;9.40;99.90;;;;;;5051732;28;20431;-84
2021/12/15 01:28:21;;;;;;;18.63;13.43;;;9.40;99.90;;;;;;5075618;28;20500;-83
2021/12/15 01:30:48;;;;;;;20.27;15.23;;;9.40;99.90;;;;;;5072713;28;20446;-82
2021/12/15 01:33:15;;;;;;;20.13;13.93;;;9.50;99.90;;;;;;5014454;28;20985;-84
2021/12/15 01:35:45;;;;;;;21.47;15.03;;;9.30;99.90;;;;;;5037776;28;20458;-80
2021/12/15 01:38:11;;;;;;;22.47;15.93;;;9.40;99.90;;;;;;5046013;28;20447;-82
2021/12/15 01:40:41;;;;;;;17.77;12.87;;;9.50;99.90;;;;;;5055335;28;20419;-81
2021/12/15 01:43:17;;;;;;;18.73;14.10;;;9.60;99.90;;;;;;5057414;28;20442;-81
2021/12/15 01:48:32;;;;;;;17.40;12.23;;;9.50;99.90;;;;;;5077975;28;21186;-83
2021/12/15 01:50:58;;;;;;;18.77;14.10;;;9.40;99.90;;;;;;5059827;28;20460;-83
2021/12/15 01:53:25;;;;;;;18.17;12.60;;;9.40;99.90;;;;;;5072897;28;20463;-84
2021/12/15 01:55:52;;;;;;;19.73;14.07;;;9.40;99.90;;;;;;5060793;28;20928;-82
2021/12/15 01:58:18;;;;;;;18.07;14.30;;;9.40;99.90;;;;;;5064573;28;20447;-84
2021/12/15 02:00:48;;;;;;;17.50;13.87;;;9.30;99.90;;;;;;5077279;28;21151;-83
2021/12/15 02:03:14;;;;;;;19.03;13.80;;;9.30;99.90;;;;;;5061037;28;20435;-85
2021/12/15 02:05:40;;;;;;;17.10;13.47;;;9.20;99.90;;;;;;5067279;28;20462;-82
2021/12/15 02:08:07;;;;;;;17.63;12.50;;;9.50;99.90;;;;;;5039746;28;20460;-83
2021/12/15 02:10:36;;;;;;;20.13;13.60;;;9.30;99.90;;;;;;5061765;28;20197;-84
2021/12/15 02:13:05;;;;;;;18.30;12.80;;;9.50;99.90;;;;;;5074705;28;20558;-85
2021/12/15 02:15:41;;;;;;;21.17;14.40;;;9.30;99.90;;;;;;5049039;28;20441;-84
2021/12/15 02:18:11;;;;;;;16.80;12.13;;;9.40;99.90;;;;;;5056677;28;21144;-84
2021/12/15 02:20:41;;;;;;;21.33;12.83;;;9.30;99.90;;;;;;5036966;28;20435;-84
2021/12/15 02:23:09;;;;;;;18.40;14.37;;;9.30;99.90;;;;;;5048873;28;20443;-83
2021/12/15 02:25:35;;;;;;;17.37;12.30;;;9.30;99.90;;;;;;5085441;28;20433;-84
2021/12/15 02:28:02;;;;;;;19.47;14.77;;;9.40;99.90;;;;;;5069393;28;20442;-85
2021/12/15 02:38:18;;;;;;;17.97;13.77;;;9.20;99.90;;;;;;5076974;28;20447;-84
2021/12/15 02:40:45;;;;;;;20.13;14.90;;;9.30;99.90;;;;;;5076926;28;20427;-85
2021/12/15 02:43:11;;;;;;;22.43;14.97;;;9.10;99.90;;;;;;5077853;28;20847;-83
2021/12/15 02:45:37;;;;;;;18.97;13.33;;;9.20;99.90;;;;;;5064203;28;20490;-83
2021/12/15 02:48:03;;;;;;;20.00;14.60;;;9.30;99.90;;;;;;5019390;28;20443;-83
2021/12/15 02:50:30;;;;;;;22.10;15.53;;;9.50;99.90;;;;;;5063428;28;20193;-82
2021/12/15 02:52:59;;;;;;;24.20;14.60;;;9.10;99.90;;;;;;5080149;28;20476;-84
2021/12/15 02:55:25;;;;;;;21.27;14.50;;;9.10;99.90;;;;;;5060964;28;20423;-84
2021/12/15 02:57:51;;;;;;;19.60;14.80;;;9.50;99.90;;;;;;5055813;28;20440;-82
2021/12/15 03:00:23;;;;;;;26.50;16.37;;;9.30;99.90;;;;;;5075278;28;20435;-83
2021/12/15 03:05:47;;;;;;;22.93;16.00;;;9.30;99.90;;;;;;5067301;28;20884;-82
2021/12/15 03:08:18;;;;;;;20.00;14.80;;;9.40;99.90;;;;;;5075280;28;20455;-83
2021/12/15 03:16:22;;;;;;;20.07;14.10;;;9.30;99.90;;;;;;5062480;28;20480;-83
2021/12/15 03:18:48;;;;;;;18.87;15.37;;;9.30;99.90;;;;;;5039667;28;20452;-84
2021/12/15 03:21:21;;;;;;;22.40;15.77;;;9.30;99.90;;;;;;5040859;28;20200;-84
2021/12/15 03:23:53;;;;;;;20.40;15.17;;;9.30;99.90;;;;;;5058287;28;20510;-84
2021/12/15 03:26:47;;;;;;;25.23;17.17;;;9.50;99.90;;;;;;5043833;28;20630;-84
2021/12/15 03:37:34;;;;;;;23.40;15.60;;;9.20;99.90;;;;;;5074556;28;20458;-85
2021/12/15 03:40:06;;;;;;;21.40;15.37;;;9.40;99.90;;;;;;5073419;28;21080;-81
2021/12/15 03:42:40;;;;;;;21.33;16.87;;;9.20;99.90;;;;;;5074425;28;20411;-81
2021/12/15 03:45:14;;;;;;;26.33;17.53;;;9.10;99.90;;;;;;5076226;28;20437;-83
2021/12/15 03:47:45;;;;;;;21.43;15.10;;;9.30;99.90;;;;;;5075647;28;20450;-83
2021/12/15 03:50:14;;;;;;;21.67;14.90;;;9.20;99.90;;;;;;5061785;28;20424;-82
2021/12/15 03:52:41;;;;;;;24.63;14.73;;;9.20;99.90;;;;;;5076291;28;20505;-82
2021/12/15 03:55:09;;;;;;;20.90;14.60;;;9.20;99.90;;;;;;5032582;28;20449;-81
2021/12/15 03:57:36;;;;;;;18.77;13.93;;;9.10;99.90;;;;;;5059231;28;20443;-83
2021/12/15 04:00:06;;;;;;;20.40;14.83;;;9.20;99.90;;;;;;5058849;28;20439;-84
2021/12/15 04:02:33;;;;;;;20.67;14.97;;;9.30;99.90;;;;;;5074833;28;20415;-84
2021/12/15 04:04:59;;;;;;;18.40;13.43;;;9.40;99.90;;;;;;5040129;28;20432;-85
2021/12/15 04:07:25;;;;;;;18.50;13.57;;;9.40;99.90;;;;;;5065727;28;20494;-84
2021/12/15 04:09:52;;;;;;;21.20;15.03;;;9.30;99.90;;;;;;5058511;28;20423;-81
2021/12/15 04:12:18;;;;;;;18.33;12.70;;;9.30;99.90;;;;;;5038877;28;20452;-82
2021/12/15 04:14:54;;;;;;;20.43;15.30;;;9.50;99.90;;;;;;5072451;28;20462;-81
2021/12/15 04:17:30;;;;;;;18.83;13.77;;;9.30;99.90;;;;;;5055286;28;20448;-83
2021/12/15 04:20:07;;;;;;;21.50;14.23;;;9.30;99.90;;;;;;5053026;28;20423;-84
2021/12/15 04:22:33;;;;;;;19.90;15.50;;;9.30;99.90;;;;;;5050321;28;20822;-85
2021/12/15 04:24:59;;;;;;;21.07;14.63;;;9.40;99.90;;;;;;5071203;28;20431;-84
2021/12/15 04:27:26;;;;;;;20.70;14.77;;;9.20;99.90;;;;;;5057216;28;21064;-85
2021/12/15 04:29:53;;;;;;;22.03;14.40;;;9.10;99.90;;;;;;5015833;28;20197;-84
2021/12/15 04:32:34;;;;;;;23.67;15.20;;;9.00;99.90;;;;;;5057736;28;21048;-82
2021/12/15 04:35:00;;;;;;;22.40;15.70;;;9.20;99.90;;;;;;5063435;28;20428;-85
2021/12/15 04:37:27;;;;;;;22.20;15.17;;;9.10;99.90;;;;;;5073046;28;20542;-85
2021/12/15 04:39:53;;;;;;;21.23;15.67;;;9.10;99.90;;;;;;5053161;28;20428;-81
2021/12/15 04:42:21;;;;;;;21.33;14.70;;;9.00;99.90;;;;;;5074016;28;20435;-82
2021/12/15 04:44:47;;;;;;;21.07;15.27;;;9.00;99.90;;;;;;5063452;28;20492;-82
2021/12/15 04:47:13;;;;;;;21.47;14.87;;;9.30;99.90;;;;;;5039813;28;20494;-83
2021/12/15 04:49:47;;;;;;;21.40;14.80;;;9.30;99.90;;;;;;5075067;28;20200;-84
2021/12/15 04:52:16;;;;;;;20.77;14.50;;;9.20;99.90;;;;;;5060371;28;20462;-82
2021/12/15 04:54:43;;;;;;;17.00;13.40;;;9.20;99.90;;;;;;5069922;28;20423;-84
2021/12/15 04:57:10;;;;;;;19.50;14.27;;;9.40;99.90;;;;;;5041328;28;20808;-84
2021/12/15 04:59:36;;;;;;;17.50;13.10;;;9.30;99.90;;;;;;5037929;28;20420;-83
2021/12/15 05:02:04;;;;;;;15.83;12.03;;;9.20;99.90;;;;;;5069364;28;20423;-83
2021/12/15 05:04:30;;;;;;;16.90;13.80;;;9.30;99.90;;;;;;5073859;28;20431;-83
2021/12/15 05:06:56;;;;;;;15.83;11.57;;;9.30;99.90;;;;;;5067794;28;20448;-80
2021/12/15 05:09:22;;;;;;;14.70;11.90;;;9.30;99.90;;;;;;5057405;28;20208;-81
2021/12/15 05:11:50;;;;;;;14.00;11.20;;;9.30;99.90;;;;;;5037866;28;20470;-82
2021/12/15 05:14:17;;;;;;;14.47;11.30;;;9.30;99.90;;;;;;5057898;28;20971;-82
2021/12/15 05:16:44;;;;;;;15.30;11.70;;;9.30;99.90;;;;;;5049410;28;20423;-80
2021/12/15 05:19:09;;;;;;;14.70;11.40;;;9.20;99.90;;;;;;5058201;28;20431;-83
2021/12/15 05:21:35;;;;;;;15.53;12.43;;;9.30;99.90;;;;;;5028090;28;20409;-83
2021/12/15 05:24:11;;;;;;;15.10;11.77;;;9.30;99.90;;;;;;5059340;28;20638;-84
2021/12/15 05:26:37;;;;;;;15.30;11.27;;;9.30;99.90;;;;;;5060771;28;20197;-83
2021/12/15 05:29:02;;;;;;;14.10;11.30;;;9.20;99.90;;;;;;5050735;28;20782;-80
2021/12/15 05:31:28;;;;;;;13.90;11.27;;;9.50;99.90;;;;;;5027247;28;20205;-81
2021/12/15 05:33:54;;;;;;;14.30;11.33;;;9.20;99.90;;;;;;5063088;28;20266;-80
2021/12/15 05:36:20;;;;;;;13.77;10.87;;;9.50;99.90;;;;;;5064084;28;20415;-83
2021/12/15 05:38:47;;;;;;;17.60;12.13;;;9.50;99.90;;;;;;5076296;28;20475;-83
2021/12/15 05:41:12;;;;;;;14.40;11.27;;;9.50;99.90;;;;;;5061772;28;20489;-83
2021/12/15 05:43:38;;;;;;;14.93;11.10;;;9.40;99.90;;;;;;5045353;28;20280;-83
2021/12/15 05:46:04;;;;;;;16.63;11.70;;;9.30;99.90;;;;;;5042923;28;20623;-83
2021/12/15 05:48:30;;;;;;;13.77;11.10;;;9.20;99.90;;;;;;5066484;28;20216;-83
2021/12/15 05:50:55;;;;;;;14.60;11.10;;;9.10;99.90;;;;;;5065844;28;20177;-84
2021/12/15 05:53:22;;;;;;;14.70;11.20;;;9.10;99.90;;;;;;5064484;28;20205;-84
2021/12/15 05:55:50;;;;;;;15.50;11.77;;;9.10;99.90;;;;;;5049291;28;20188;-85
2021/12/15 05:58:15;;;;;;;14.33;11.50;;;9.10;99.90;;;;;;5066502;28;20986;-83
2021/12/15 06:00:43;;;;;;;15.20;11.63;;;9.20;99.90;;;;;;5034065;28;20525;-81
2021/12/15 06:03:10;;;;;;;13.47;10.70;;;9.10;99.90;;;;;;5047639;28;20714;-82
2021/12/15 06:05:37;;;;;;;15.07;10.50;;;9.20;99.90;;;;;;5084196;28;20411;-83
2021/12/15 06:08:04;;;;;;;14.70;12.00;;;9.40;99.90;;;;;;5070857;28;20462;-84
2021/12/15 06:10:31;;;;;;;16.13;11.50;;;9.30;99.90;;;;;;5048614;28;20422;-84
2021/12/15 06:12:58;;;;;;;14.60;11.33;;;9.30;99.90;;;;;;5062776;28;20465;-81
2021/12/15 06:15:28;;;;;;;14.53;11.77;;;9.20;99.90;;;;;;5083706;28;20446;-84
2021/12/15 06:18:02;;;;;;;14.00;11.13;;;9.20;99.90;;;;;;5071621;28;20446;-81
2021/12/15 06:20:29;;;;;;;14.30;11.10;;;9.20;99.90;;;;;;5084879;28;20480;-82
2021/12/15 06:22:55;;;;;;;15.73;12.50;;;9.20;99.90;;;;;;5067724;28;20439;-83
2021/12/15 06:25:22;;;;;;;14.47;12.07;;;9.20;99.90;;;;;;5079991;28;20934;-82
2021/12/15 06:27:48;;;;;;;12.70;10.57;;;9.20;99.90;;;;;;5091423;28;20449;-82
2021/12/15 06:30:14;;;;;;;14.37;11.80;;;9.30;99.90;;;;;;5055203;28;21355;-84
2021/12/15 06:32:41;;;;;;;15.10;11.63;;;9.20;99.90;;;;;;5049924;28;20452;-83
2021/12/15 06:35:08;;;;;;;13.27;10.87;;;9.30;99.90;;;;;;5064135;28;20419;-84
2021/12/15 06:37:34;;;;;;;13.60;11.07;;;9.30;99.90;;;;;;5079820;28;20505;-82
2021/12/15 06:40:00;;;;;;;17.53;13.40;;;9.50;99.90;;;;;;5064518;28;20415;-83
2021/12/15 06:42:26;;;;;;;16.63;12.10;;;9.20;99.90;;;;;;5048023;28;20796;-82
2021/12/15 06:44:52;;;;;;;16.73;12.57;;;9.30;99.90;;;;;;5051755;28;20896;-83
2021/12/15 06:58:17;;;;;;;14.70;11.87;;;9.20;99.90;;;;;;5068456;28;20508;-84
2021/12/15 07:00:49;;;;;;;14.10;11.10;;;9.30;99.90;;;;;;5075594;28;20427;-84
2021/12/15 07:03:17;;;;;;;15.10;11.57;;;9.30;99.90;;;;;;5077320;28;20499;-83
2021/12/15 07:05:44;;;;;;;15.20;11.60;;;9.20;99.90;;;;;;5025697;28;20456;-83
2021/12/15 07:08:11;;;;;;;14.63;11.80;;;9.30;99.90;;;;;;5061963;28;20479;-82
2021/12/15 07:10:42;;;;;;;13.17;11.27;;;9.50;99.90;;;;;;5053200;28;20428;-82
2021/12/15 07:13:09;;;;;;;15.33;12.20;;;9.10;99.90;;;;;;5069291;28;20455;-80
2021/12/15 07:15:37;;;;;;;15.77;11.90;;;9.20;99.90;;;;;;5017858;28;20635;-84
2021/12/15 07:18:08;;;;;;;14.33;10.60;;;9.30;99.90;;;;;;5074664;28;20432;-84
2021/12/15 07:20:45;;;;;;;13.40;10.57;;;9.40;99.90;;;;;;5038487;28;20450;-81
2021/12/15 07:23:16;;;;;;;13.20;10.37;;;9.30;99.90;;;;;;5070400;28;20461;-83
2021/12/15 07:25:46;;;;;;;14.43;11.03;;;9.40;99.90;;;;;;5067516;28;20419;-83
2021/12/15 07:28:12;;;;;;;13.80;11.07;;;9.40;99.90;;;;;;5080828;28;20847;-80
2021/12/15 07:30:38;;;;;;;14.43;11.00;;;9.30;99.90;;;;;;5072423;28;20435;-81
2021/12/15 07:33:06;;;;;;;14.03;10.77;;;9.40;99.90;;;;;;5052503;28;20992;-81
2021/12/15 07:35:32;;;;;;;15.00;11.07;;;9.30;99.90;;;;;;5071045;28;20412;-81
2021/12/15 07:37:58;;;;;;;14.53;10.90;;;9.50;99.90;;;;;;5050473;28;20435;-82
2021/12/15 07:40:26;;;;;;;14.83;11.07;;;9.30;99.90;;;;;;5070776;28;20430;-81
2021/12/15 07:43:14;;;;;;;14.80;10.60;;;9.30;99.90;;;;;;5064371;28;20514;-82
2021/12/15 07:45:50;;;;;;;15.17;11.40;;;9.40;99.90;;;;;;5069073;28;20442;-84
2021/12/15 07:48:16;;;;;;;15.60;11.20;;;9.50;99.90;;;;;;5052880;28;20453;-84
2021/12/15 07:50:45;;;;;;;14.77;10.93;;;9.30;99.90;;;;;;5043368;28;20420;-82
2021/12/15 07:53:11;;;;;;;15.50;11.50;;;9.40;99.90;;;;;;5043814;28;20485;-81
2021/12/15 07:55:37;;;;;;;14.20;10.50;;;9.30;99.90;;;;;;5073386;28;20441;-81
2021/12/15 07:58:06;;;;;;;14.80;10.20;;;9.50;99.90;;;;;;5038063;28;20516;-83
2021/12/15 08:00:33;;;;;;;13.43;10.77;;;9.30;99.90;;;;;;5064455;28;20456;-83
2021/12/15 08:02:59;;;;;;;14.63;10.87;;;9.40;99.90;;;;;;5033385;28;20466;-82
2021/12/15 08:05:27;;;;;;;16.37;11.00;;;9.40;99.90;;;;;;5049460;28;20432;-80
2021/12/15 08:07:53;;;;;;;12.73;9.57;;;9.70;99.90;;;;;;5044697;28;20539;-81
2021/12/15 08:10:19;;;;;;;15.13;11.00;;;9.40;99.90;;;;;;5032150;28;20518;-84
2021/12/15 08:12:46;;;;;;;11.10;9.10;;;9.80;99.90;;;;;;5062482;28;20474;-83
2021/12/15 08:15:13;;;;;;;13.87;9.73;;;9.50;99.90;;;;;;5033443;28;20420;-81
2021/12/15 08:17:40;;;;;;;14.20;10.10;;;9.50;99.90;;;;;;5069070;28;20514;-83
2021/12/15 08:20:10;;;;;;;12.83;9.50;;;9.50;99.90;;;;;;5049443;28;20435;-83
2021/12/15 08:22:38;;;;;;;12.47;9.60;;;9.50;99.90;;;;;;5018219;28;20427;-80
2021/12/15 08:25:05;;;;;;;11.47;8.20;;;9.60;99.90;;;;;;5051769;28;21014;-82
2021/12/15 08:27:31;;;;;;;12.27;9.00;;;9.50;99.90;;;;;;5037273;28;20440;-81
2021/12/15 08:29:57;;;;;;;10.70;8.43;;;9.60;99.90;;;;;;5057704;28;21177;-83
2021/12/15 08:32:23;;;;;;;13.63;10.00;;;9.70;99.90;;;;;;5056405;28;20499;-81
2021/12/15 08:34:49;;;;;;;14.00;10.83;;;9.50;99.90;;;;;;5031378;28;20189;-82
2021/12/15 08:37:15;;;;;;;13.87;9.93;;;9.70;99.90;;;;;;5066885;28;20350;-83
2021/12/15 08:39:42;;;;;;;16.07;10.80;;;9.40;99.90;;;;;;5048112;28;20211;-82
2021/12/15 08:42:09;;;;;;;15.17;10.77;;;9.50;99.90;;;;;;5073251;28;20422;-83
2021/12/15 08:44:36;;;;;;;14.77;10.50;;;9.50;99.90;;;;;;5028992;28;20429;-81
2021/12/15 08:47:02;;;;;;;14.40;10.77;;;9.70;99.90;;;;;;5053144;28;20792;-84
2021/12/15 08:49:28;;;;;;;15.60;10.53;;;9.80;99.90;;;;;;5062579;28;20440;-83
2021/12/15 08:51:54;;;;;;;15.33;11.00;;;9.50;99.90;;;;;;5053351;28;20476;-83
2021/12/15 08:54:21;;;;;;;15.67;11.80;;;9.60;99.90;;;;;;5071155;28;20241;-81
2021/12/15 08:56:48;;;;;;;15.17;10.70;;;9.50;99.90;;;;;;5041230;28;20196;-82
2021/12/15 08:59:15;;;;;;;15.80;11.70;;;9.60;99.90;;;;;;5028799;28;20416;-83
2021/12/15 09:01:42;;;;;;;17.10;11.80;;;9.60;99.90;;;;;;5053410;28;20500;-82
2021/12/15 09:04:08;;;;;;;15.93;10.53;;;9.60;99.90;;;;;;5027933;28;20428;-83
2021/12/15 09:06:35;;;;;;;17.83;13.17;;;9.60;99.90;;;;;;5052851;28;20442;-81
2021/12/15 09:09:02;;;;;;;19.40;13.90;;;9.60;99.90;;;;;;5063890;28;20445;-81
2021/12/15 09:11:28;;;;;;;22.00;13.37;;;9.50;99.90;;;;;;5055891;28;20481;-81
2021/12/15 09:13:57;;;;;;;20.63;14.80;;;9.40;99.90;;;;;;5071667;28;20462;-83
2021/12/15 09:16:24;;;;;;;22.17;14.13;;;9.40;99.90;;;;;;5072914;28;20462;-81
2021/12/15 09:18:50;;;;;;;20.00;14.00;;;9.40;99.90;;;;;;5038967;28;20443;-81
2021/12/15 09:21:19;;;;;;;22.00;14.93;;;9.70;99.90;;;;;;5034720;28;20431;-82
2021/12/15 09:23:46;;;;;;;19.50;13.83;;;9.70;99.90;;;;;;5063991;28;20427;-82
2021/12/15 09:26:12;;;;;;;23.13;14.63;;;9.50;99.90;;;;;;5045343;28;20436;-83
2021/12/15 09:28:38;;;;;;;22.30;15.20;;;9.50;99.90;;;;;;5068877;28;20827;-82
2021/12/15 09:31:06;;;;;;;19.23;14.40;;;9.60;99.90;;;;;;5041656;28;20956;-82
2021/12/15 09:33:33;;;;;;;20.70;14.33;;;9.50;99.90;;;;;;5071462;28;20462;-83
2021/12/15 09:36:01;;;;;;;19.93;15.07;;;9.60;99.90;;;;;;5042859;28;20504;-83
2021/12/15 09:38:27;;;;;;;22.47;15.13;;;9.60;99.90;;;;;;5072502;28;21067;-82
2021/12/15 09:40:58;;;;;;;22.80;16.23;;;9.70;99.90;;;;;;5044417;28;20809;-84
2021/12/15 09:43:27;;;;;;;23.53;16.53;;;9.40;99.90;;;;;;5061917;28;20450;-82
2021/12/15 09:46:01;;;;;;;22.20;16.17;;;9.50;99.90;;;;;;5071397;28;20420;-83
2021/12/15 09:57:17;;;;;;;20.70;15.50;;;9.70;99.90;;;;;;5072874;28;20775;-82
2021/12/15 10:02:52;;;;;;;19.23;15.10;;;9.60;99.90;;;;;;5072075;28;20511;-83
2021/12/15 10:05:49;;;;;;;24.00;16.40;;;9.50;99.90;;;;;;5058696;28;20785;-84
2021/12/15 10:19:32;;;;;;;22.77;15.93;;;9.70;99.90;;;;;;5074599;28;20454;-83
2021/12/15 10:25:12;;;;;;;19.50;14.80;;;9.80;99.90;;;;;;5074138;28;20841;-83
2021/12/15 10:27:40;;;;;;;22.53;14.97;;;9.70;99.90;;;;;;5038792;28;20558;-85
2021/12/15 10:30:24;;;;;;;20.30;15.03;;;9.70;99.90;;;;;;5029842;28;20450;-83
2021/12/15 10:33:01;;;;;;;24.40;16.47;;;9.70;99.90;;;;;;5062243;28;20475;-84
2021/12/15 10:35:31;;;;;;;23.83;16.30;;;9.80;99.90;;;;;;5073118;28;20422;-84
2021/12/15 10:38:28;;;;;;;22.30;16.50;;;9.60;99.90;;;;;;5047762;28;20435;-81
2021/12/15 10:41:20;;;;;;;20.83;14.90;;;9.60;99.90;;;;;;5055902;28;20428;-83
2021/12/15 10:44:22;;;;;;;23.77;16.47;;;9.70;99.90;;;;;;5065947;28;20430;-82
2021/12/15 10:46:50;;;;;;;21.50;15.70;;;9.80;99.90;;;;;;5045005;28;20890;-83
2021/12/15 10:49:25;;;;;;;23.50;17.20;;;9.70;99.90;;;;;;5058280;28;20434;-84
2021/12/15 10:52:00;;;;;;;21.83;15.67;;;9.50;99.90;;;;;;5062377;28;20407;-84
2021/12/15 10:54:35;;;;;;;21.53;16.90;;;9.70;99.90;;;;;;5065284;28;20796;-83
2021/12/15 10:57:06;;;;;;;23.60;15.60;;;9.60;99.90;;;;;;5067276;28;20434;-85
2021/12/15 10:59:38;;;;;;;21.80;16.07;;;9.60;99.90;;;;;;5055025;28;20424;-84
2021/12/15 11:02:10;;;;;;;25.13;16.73;;;9.60;99.90;;;;;;5083723;28;20501;-85
2021/12/15 11:04:56;;;;;;;23.57;17.40;;;9.70;99.90;;;;;;5038105;28;20431;-84
2021/12/15 11:07:31;;;;;;;20.00;15.20;;;9.70;99.90;;;;;;5046943;28;20428;-84
2021/12/15 11:10:13;;;;;;;20.80;16.00;;;9.40;99.90;;;;;;5055687;28;20431;-84
2021/12/15 11:12:43;;;;;;;21.13;16.30;;;9.50;99.90;;;;;;5041221;28;20490;-84
2021/12/15 11:15:17;;;;;;;22.77;16.57;;;9.40;99.90;;;;;;5050341;28;20424;-85
2021/12/15 11:17:50;;;;;;;22.10;16.40;;;9.70;99.90;;;;;;5070037;28;20427;-85
2021/12/15 11:20:28;;;;;;;22.97;16.47;;;9.60;99.90;;;;;;5024662;28;20459;-82
2021/12/15 11:22:57;;;;;;;20.00;15.77;;;9.60;99.90;;;;;;5060878;28;20711;-82
2021/12/15 11:25:43;;;;;;;21.67;16.20;;;9.60;99.90;;;;;;5020052;28;20927;-84
2021/12/15 11:28:15;;;;;;;23.80;15.90;;;9.80;99.90;;;;;;5049420;28;20828;-84
2021/12/15 11:30:51;;;;;;;23.53;16.77;;;9.70;99.90;;;;;;5053642;28;20435;-81
2021/12/15 11:33:21;;;;;;;25.90;17.03;;;10.00;99.90;;;;;;5066139;28;20458;-84
2021/12/15 11:35:56;;;;;;;22.30;16.70;;;9.60;99.90;;;;;;5044514;28;20960;-83
2021/12/15 11:38:32;;;;;;;24.40;17.57;;;9.80;99.90;;;;;;5045238;28;20513;-84
2021/12/15 11:40:58;;;;;;;29.00;17.33;;;9.80;99.90;;;;;;5048513;28;20439;-83
2021/12/15 11:43:47;;;;;;;24.97;17.37;;;9.90;99.90;;;;;;5056727;28;20426;-84
2021/12/15 11:46:23;;;;;;;23.43;17.93;;;9.80;99.90;;;;;;5047833;28;20193;-83
2021/12/15 11:49:04;;;;;;;25.23;17.30;;;9.70;99.90;;;;;;5062123;28;20450;-83
2021/12/15 11:51:41;;;;;;;22.90;17.20;;;9.80;99.90;;;;;;5065556;28;20431;-82
2021/12/15 11:54:24;;;;;;;27.77;17.70;;;10.00;99.90;;;;;;5047732;28;20557;-84
2021/12/15 11:56:56;;;;;;;24.47;17.03;;;9.70;99.90;;;;;;5054215;28;20427;-84
2021/12/15 11:59:38;;;;;;;24.03;17.13;;;9.80;99.90;;;;;;5070418;28;20964;-81
2021/12/15 12:02:18;;;;;;;25.53;18.27;;;9.80;99.90;;;;;;5012622;28;20427;-81
2021/12/15 12:05:04;;;;;;;26.97;18.83;;;9.70;99.90;;;;;;5054605;28;20796;-83
2021/12/15 12:07:34;;;;;;;23.80;18.13;;;9.80;99.90;;;;;;5072969;28;20439;-83
2021/12/15 12:10:06;;;;;;;23.57;17.50;;;9.70;99.90;;;;;;5042858;28;20515;-83
2021/12/15 12:12:39;;;;;;;24.80;17.87;;;9.70;99.90;;;;;;5064141;28;20995;-83
2021/12/15 12:15:08;;;;;;;21.93;16.87;;;10.00;99.90;;;;;;5034772;28;20786;-84
2021/12/15 12:17:39;;;;;;;22.20;17.23;;;9.70;99.90;;;;;;5037980;28;20501;-84
2021/12/15 12:20:13;;;;;;;24.37;17.20;;;9.70;99.90;;;;;;5024715;28;20928;-82
2021/12/15 12:22:43;;;;;;;21.37;16.27;;;9.70;99.90;;;;;;5060236;28;20419;-84
2021/12/15 12:25:19;;;;;;;23.80;17.27;;;9.80;99.90;;;;;;5066032;28;20487;-82
2021/12/15 12:27:47;;;;;;;22.90;17.30;;;9.70;99.90;;;;;;5069553;28;20448;-83
2021/12/15 12:30:22;;;;;;;20.30;16.43;;;9.70;99.90;;;;;;5043234;28;20547;-83
2021/12/15 12:32:49;;;;;;;23.30;17.10;;;9.80;99.90;;;;;;5056957;28;20466;-84
2021/12/15 12:35:22;;;;;;;18.93;15.73;;;10.00;99.90;;;;;;5056450;28;20427;-84
2021/12/15 12:37:57;;;;;;;23.17;16.50;;;9.80;99.90;;;;;;5039898;28;20801;-84
2021/12/15 12:40:30;;;;;;;19.10;16.47;;;9.80;99.90;;;;;;5039331;28;20442;-84
2021/12/15 12:42:57;;;;;;;21.50;16.20;;;9.70;99.90;;;;;;5039867;28;20445;-81
2021/12/15 12:45:38;;;;;;;20.70;16.40;;;9.80;99.90;;;;;;5055680;28;20424;-84
2021/12/15 12:48:35;;;;;;;21.73;15.77;;;9.70;99.90;;;;;;5028253;28;20451;-81
2021/12/15 12:59:38;;;;;;;20.57;15.83;;;10.00;99.90;;;;;;5055304;28;20423;-82
2021/12/15 13:02:35;;;;;;;21.00;15.07;;;9.90;99.90;;;;;;5066385;28;20408;-81
2021/12/15 13:05:01;;;;;;;23.67;15.83;;;9.80;99.90;;;;;;5042253;28;20462;-84
2021/12/15 13:07:48;;;;;;;24.03;16.80;;;9.90;99.90;;;;;;5060881;28;20436;-82
2021/12/15 13:10:16;;;;;;;23.37;16.87;;;9.90;99.90;;;;;;5041398;28;20398;-85
2021/12/15 13:12:47;;;;;;;24.47;17.23;;;9.90;99.90;;;;;;5055081;28;20999;-81
2021/12/15 13:15:22;;;;;;;21.57;15.27;;;9.70;99.90;;;;;;5054621;28;20427;-81
2021/12/15 13:18:02;;;;;;;22.17;16.00;;;10.00;99.90;;;;;;5058145;28;20878;-82
2021/12/15 13:20:32;;;;;;;23.27;16.70;;;9.90;99.90;;;;;;5068764;28;20423;-82
2021/12/15 13:31:28;;;;;;;23.40;16.97;;;9.90;99.90;;;;;;5071289;28;20447;-83
2021/12/15 13:34:00;;;;;;;22.80;15.90;;;9.80;99.90;;;;;;5024469;28;20468;-84
2021/12/15 13:36:30;;;;;;;27.63;18.47;;;10.00;99.90;;;;;;5045853;28;20864;-83
2021/12/15 13:39:02;;;;;;;22.50;16.67;;;9.90;99.90;;;;;;5052057;28;20434;-84
2021/12/15 13:44:40;;;;;;;24.87;18.03;;;10.10;99.90;;;;;;5077075;28;20472;-84
2021/12/15 13:47:13;;;;;;;22.77;17.47;;;10.00;99.90;;;;;;5068805;28;20440;-84
2021/12/15 13:49:44;;;;;;;28.43;18.33;;;9.90;99.90;;;;;;5067253;28;20427;-84
2021/12/15 13:52:30;;;;;;;27.27;18.90;;;9.90;99.90;;;;;;5055275;28;20505;-84
2021/12/15 13:55:25;;;;;;;27.83;18.80;;;10.00;99.90;;;;;;5056792;28;20566;-82
2021/12/15 13:58:03;;;;;;;28.03;19.53;;;9.90;99.90;;;;;;5058026;28;20446;-82
2021/12/15 14:00:32;;;;;;;28.60;19.23;;;9.90;99.90;;;;;;5052414;28;20427;-84
2021/12/15 14:03:13;;;;;;;29.70;20.30;;;10.10;99.90;;;;;;5056885;28;20505;-83
2021/12/15 14:05:47;;;;;;;28.20;19.13;;;10.00;99.90;;;;;;5052696;28;20431;-82
2021/12/15 14:08:27;;;;;;;30.63;22.30;;;10.00;99.90;;;;;;5054437;28;20504;-82
2021/12/15 14:11:04;;;;;;;28.60;19.97;;;9.90;99.90;;;;;;5051281;28;20530;-83
2021/12/15 14:13:46;;;;;;;27.10;18.33;;;10.00;99.90;;;;;;5052546;28;20618;-84
2021/12/15 14:16:12;;;;;;;28.43;18.67;;;10.20;99.90;;;;;;5058969;28;20425;-81
2021/12/15 14:18:39;;;;;;;31.50;18.73;;;10.00;99.90;;;;;;5048067;28;20440;-82
2021/12/15 14:21:15;;;;;;;27.17;18.83;;;10.00;99.90;;;;;;5055854;28;20428;-82
2021/12/15 14:23:47;;;;;;;27.80;19.40;;;9.90;99.90;;;;;;5029345;28;20454;-82